sensor_id;sensor_type;location;lat;lon;timestamp;P1;durP1;ratioP1;P2;durP2;ratioP2
6392;SDS011;3229;42.674;23.282;2023-03-17T00:00:20;3.43;;;3.13;;
6392;SDS011;3229;42.674;23.282;2023-03-17T00:02:49;3.40;;;2.93;;
6392;SDS011;3229;42.674;23.282;2023-03-17T00:05:18;3.43;;;3.10;;
6392;SDS011;3229;42.674;23.282;2023-03-17T00:07:48;3.27;;;2.97;;
6392;SDS011;3229;42.674;23.282;2023-03-17T00:10:18;3.00;;;2.80;;
6392;SDS011;3229;42.674;23.282;2023-03-17T00:12:47;3.47;;;2.97;;
6392;SDS011;3229;42.674;23.282;2023-03-17T00:15:15;3.27;;;3.00;;
6392;SDS011;3229;42.674;23.282;2023-03-17T00:17:43;3.43;;;3.13;;
6392;SDS011;3229;42.674;23.282;2023-03-17T00:20:22;3.50;;;3.20;;
6392;SDS011;3229;42.674;23.282;2023-03-17T00:22:51;3.17;;;2.87;;
6392;SDS011;3229;42.674;23.282;2023-03-17T00:25:21;3.13;;;2.87;;
6392;SDS011;3229;42.674;23.282;2023-03-17T00:27:49;2.93;;;2.73;;
6392;SDS011;3229;42.674;23.282;2023-03-17T00:30:16;3.23;;;2.93;;
6392;SDS011;3229;42.674;23.282;2023-03-17T00:32:45;3.37;;;3.07;;
6392;SDS011;3229;42.674;23.282;2023-03-17T00:35:16;3.23;;;2.80;;
6392;SDS011;3229;42.674;23.282;2023-03-17T00:37:46;4.17;;;3.03;;
6392;SDS011;3229;42.674;23.282;2023-03-17T00:40:17;3.80;;;3.17;;
6392;SDS011;3229;42.674;23.282;2023-03-17T00:42:47;3.40;;;3.10;;
6392;SDS011;3229;42.674;23.282;2023-03-17T00:45:15;3.40;;;3.10;;
6392;SDS011;3229;42.674;23.282;2023-03-17T00:47:43;3.20;;;2.90;;
6392;SDS011;3229;42.674;23.282;2023-03-17T00:50:12;3.07;;;2.57;;
6392;SDS011;3229;42.674;23.282;2023-03-17T00:52:40;3.60;;;3.30;;
6392;SDS011;3229;42.674;23.282;2023-03-17T00:55:08;3.43;;;3.13;;
6392;SDS011;3229;42.674;23.282;2023-03-17T00:57:36;3.13;;;2.93;;
6392;SDS011;3229;42.674;23.282;2023-03-17T01:00:09;3.33;;;3.03;;
6392;SDS011;3229;42.674;23.282;2023-03-17T01:02:43;4.37;;;2.83;;
6392;SDS011;3229;42.674;23.282;2023-03-17T01:05:11;3.60;;;2.80;;
6392;SDS011;3229;42.674;23.282;2023-03-17T01:07:38;3.10;;;2.80;;
6392;SDS011;3229;42.674;23.282;2023-03-17T01:10:10;2.63;;;2.43;;
6392;SDS011;3229;42.674;23.282;2023-03-17T01:12:40;3.03;;;2.83;;
6392;SDS011;3229;42.674;23.282;2023-03-17T01:15:09;3.00;;;2.80;;
6392;SDS011;3229;42.674;23.282;2023-03-17T01:17:36;3.07;;;2.80;;
6392;SDS011;3229;42.674;23.282;2023-03-17T01:20:04;3.70;;;2.80;;
6392;SDS011;3229;42.674;23.282;2023-03-17T01:22:32;2.70;;;2.50;;
6392;SDS011;3229;42.674;23.282;2023-03-17T01:24:58;2.77;;;2.57;;
6392;SDS011;3229;42.674;23.282;2023-03-17T01:27:25;2.77;;;2.57;;
6392;SDS011;3229;42.674;23.282;2023-03-17T01:29:53;3.00;;;2.73;;
6392;SDS011;3229;42.674;23.282;2023-03-17T01:32:21;3.33;;;3.03;;
6392;SDS011;3229;42.674;23.282;2023-03-17T01:34:49;2.93;;;2.73;;
6392;SDS011;3229;42.674;23.282;2023-03-17T01:37:16;3.47;;;2.80;;
6392;SDS011;3229;42.674;23.282;2023-03-17T01:39:43;2.97;;;2.63;;
6392;SDS011;3229;42.674;23.282;2023-03-17T01:42:10;3.03;;;2.47;;
6392;SDS011;3229;42.674;23.282;2023-03-17T01:47:27;3.23;;;2.87;;
6392;SDS011;3229;42.674;23.282;2023-03-17T01:49:56;2.97;;;2.73;;
6392;SDS011;3229;42.674;23.282;2023-03-17T01:52:25;2.93;;;2.73;;
6392;SDS011;3229;42.674;23.282;2023-03-17T01:54:55;2.90;;;2.50;;
6392;SDS011;3229;42.674;23.282;2023-03-17T01:57:26;2.83;;;2.63;;
6392;SDS011;3229;42.674;23.282;2023-03-17T01:59:57;2.40;;;2.30;;
6392;SDS011;3229;42.674;23.282;2023-03-17T02:02:31;2.80;;;2.60;;
6392;SDS011;3229;42.674;23.282;2023-03-17T02:05:01;3.20;;;3.00;;
6392;SDS011;3229;42.674;23.282;2023-03-17T02:07:30;3.20;;;2.53;;
6392;SDS011;3229;42.674;23.282;2023-03-17T02:09:57;2.87;;;2.67;;
6392;SDS011;3229;42.674;23.282;2023-03-17T02:12:25;3.07;;;2.77;;
6392;SDS011;3229;42.674;23.282;2023-03-17T02:14:54;2.80;;;2.60;;
6392;SDS011;3229;42.674;23.282;2023-03-17T02:17:22;2.83;;;2.63;;
6392;SDS011;3229;42.674;23.282;2023-03-17T02:19:52;2.60;;;2.40;;
6392;SDS011;3229;42.674;23.282;2023-03-17T02:22:21;3.97;;;2.93;;
6392;SDS011;3229;42.674;23.282;2023-03-17T02:24:49;3.03;;;2.37;;
6392;SDS011;3229;42.674;23.282;2023-03-17T02:27:20;2.87;;;2.60;;
6392;SDS011;3229;42.674;23.282;2023-03-17T02:29:50;2.70;;;2.50;;
6392;SDS011;3229;42.674;23.282;2023-03-17T02:32:17;3.00;;;2.80;;
6392;SDS011;3229;42.674;23.282;2023-03-17T02:34:44;3.30;;;3.00;;
6392;SDS011;3229;42.674;23.282;2023-03-17T02:37:12;2.63;;;2.50;;
6392;SDS011;3229;42.674;23.282;2023-03-17T02:39:41;3.13;;;2.83;;
6392;SDS011;3229;42.674;23.282;2023-03-17T02:42:08;2.63;;;2.43;;
6392;SDS011;3229;42.674;23.282;2023-03-17T02:44:36;3.33;;;3.03;;
6392;SDS011;3229;42.674;23.282;2023-03-17T02:47:04;2.90;;;2.60;;
6392;SDS011;3229;42.674;23.282;2023-03-17T02:49:32;3.27;;;2.90;;
6392;SDS011;3229;42.674;23.282;2023-03-17T02:52:01;3.20;;;2.90;;
6392;SDS011;3229;42.674;23.282;2023-03-17T02:54:28;3.33;;;2.53;;
6392;SDS011;3229;42.674;23.282;2023-03-17T02:56:56;3.00;;;2.80;;
6392;SDS011;3229;42.674;23.282;2023-03-17T02:59:23;3.67;;;2.83;;
6392;SDS011;3229;42.674;23.282;2023-03-17T03:01:50;3.07;;;2.77;;
6392;SDS011;3229;42.674;23.282;2023-03-17T03:04:17;3.00;;;2.80;;
6392;SDS011;3229;42.674;23.282;2023-03-17T03:06:44;3.20;;;2.77;;
6392;SDS011;3229;42.674;23.282;2023-03-17T03:09:12;3.20;;;3.00;;
6392;SDS011;3229;42.674;23.282;2023-03-17T03:11:39;7.80;;;2.93;;
6392;SDS011;3229;42.674;23.282;2023-03-17T03:14:08;4.13;;;3.00;;
6392;SDS011;3229;42.674;23.282;2023-03-17T03:16:35;2.67;;;2.47;;
6392;SDS011;3229;42.674;23.282;2023-03-17T03:19:02;3.13;;;2.93;;
6392;SDS011;3229;42.674;23.282;2023-03-17T03:21:29;2.70;;;2.50;;
6392;SDS011;3229;42.674;23.282;2023-03-17T03:23:56;3.40;;;2.83;;
6392;SDS011;3229;42.674;23.282;2023-03-17T03:26:23;3.70;;;3.10;;
6392;SDS011;3229;42.674;23.282;2023-03-17T03:28:50;3.27;;;3.00;;
6392;SDS011;3229;42.674;23.282;2023-03-17T03:31:18;3.30;;;3.00;;
6392;SDS011;3229;42.674;23.282;2023-03-17T03:33:45;2.77;;;2.57;;
6392;SDS011;3229;42.674;23.282;2023-03-17T03:36:12;3.20;;;2.90;;
6392;SDS011;3229;42.674;23.282;2023-03-17T03:38:39;3.10;;;2.80;;
6392;SDS011;3229;42.674;23.282;2023-03-17T03:41:06;4.23;;;2.90;;
6392;SDS011;3229;42.674;23.282;2023-03-17T03:43:33;3.37;;;2.97;;
6392;SDS011;3229;42.674;23.282;2023-03-17T03:46:00;2.77;;;2.57;;
6392;SDS011;3229;42.674;23.282;2023-03-17T03:48:28;3.00;;;2.80;;
6392;SDS011;3229;42.674;23.282;2023-03-17T03:50:56;4.43;;;3.20;;
6392;SDS011;3229;42.674;23.282;2023-03-17T03:53:24;3.40;;;2.73;;
6392;SDS011;3229;42.674;23.282;2023-03-17T03:55:51;3.10;;;2.90;;
6392;SDS011;3229;42.674;23.282;2023-03-17T03:58:18;3.63;;;3.10;;
6392;SDS011;3229;42.674;23.282;2023-03-17T04:00:45;3.13;;;2.83;;
6392;SDS011;3229;42.674;23.282;2023-03-17T04:03:12;4.37;;;2.80;;
6392;SDS011;3229;42.674;23.282;2023-03-17T04:05:40;3.43;;;3.13;;
6392;SDS011;3229;42.674;23.282;2023-03-17T04:08:07;3.43;;;3.13;;
6392;SDS011;3229;42.674;23.282;2023-03-17T04:10:35;3.93;;;3.30;;
6392;SDS011;3229;42.674;23.282;2023-03-17T04:13:02;3.03;;;2.73;;
6392;SDS011;3229;42.674;23.282;2023-03-17T04:15:29;2.97;;;2.67;;
6392;SDS011;3229;42.674;23.282;2023-03-17T04:17:55;3.50;;;3.00;;
6392;SDS011;3229;42.674;23.282;2023-03-17T04:20:22;3.13;;;2.83;;
6392;SDS011;3229;42.674;23.282;2023-03-17T04:22:50;3.27;;;2.97;;
6392;SDS011;3229;42.674;23.282;2023-03-17T04:25:17;3.63;;;3.17;;
6392;SDS011;3229;42.674;23.282;2023-03-17T04:27:44;2.93;;;2.73;;
6392;SDS011;3229;42.674;23.282;2023-03-17T04:30:11;3.00;;;2.80;;
6392;SDS011;3229;42.674;23.282;2023-03-17T04:32:40;3.33;;;3.03;;
6392;SDS011;3229;42.674;23.282;2023-03-17T04:35:09;3.33;;;3.03;;
6392;SDS011;3229;42.674;23.282;2023-03-17T04:37:39;3.50;;;2.87;;
6392;SDS011;3229;42.674;23.282;2023-03-17T04:40:08;3.67;;;3.10;;
6392;SDS011;3229;42.674;23.282;2023-03-17T04:42:36;3.10;;;2.87;;
6392;SDS011;3229;42.674;23.282;2023-03-17T04:45:04;3.27;;;3.00;;
6392;SDS011;3229;42.674;23.282;2023-03-17T04:47:33;3.33;;;3.03;;
6392;SDS011;3229;42.674;23.282;2023-03-17T04:50:00;3.27;;;2.97;;
6392;SDS011;3229;42.674;23.282;2023-03-17T04:52:27;5.40;;;3.20;;
6392;SDS011;3229;42.674;23.282;2023-03-17T04:54:55;3.53;;;2.90;;
6392;SDS011;3229;42.674;23.282;2023-03-17T04:57:23;3.60;;;3.30;;
6392;SDS011;3229;42.674;23.282;2023-03-17T04:59:50;3.40;;;3.10;;
6392;SDS011;3229;42.674;23.282;2023-03-17T05:02:17;3.30;;;3.00;;
6392;SDS011;3229;42.674;23.282;2023-03-17T05:04:44;3.47;;;3.13;;
6392;SDS011;3229;42.674;23.282;2023-03-17T05:07:11;3.87;;;3.27;;
6392;SDS011;3229;42.674;23.282;2023-03-17T05:09:38;3.43;;;3.13;;
6392;SDS011;3229;42.674;23.282;2023-03-17T05:12:06;3.20;;;3.00;;
6392;SDS011;3229;42.674;23.282;2023-03-17T05:14:35;3.67;;;3.33;;
6392;SDS011;3229;42.674;23.282;2023-03-17T05:17:02;3.50;;;3.20;;
6392;SDS011;3229;42.674;23.282;2023-03-17T05:19:29;3.50;;;3.20;;
6392;SDS011;3229;42.674;23.282;2023-03-17T05:21:56;3.40;;;3.10;;
6392;SDS011;3229;42.674;23.282;2023-03-17T05:24:22;4.03;;;3.57;;
6392;SDS011;3229;42.674;23.282;2023-03-17T05:26:49;3.50;;;3.10;;
6392;SDS011;3229;42.674;23.282;2023-03-17T05:29:16;3.27;;;3.00;;
6392;SDS011;3229;42.674;23.282;2023-03-17T05:31:44;3.53;;;3.23;;
6392;SDS011;3229;42.674;23.282;2023-03-17T05:34:11;4.00;;;3.17;;
6392;SDS011;3229;42.674;23.282;2023-03-17T05:36:38;3.10;;;2.83;;
6392;SDS011;3229;42.674;23.282;2023-03-17T05:39:05;3.70;;;3.40;;
6392;SDS011;3229;42.674;23.282;2023-03-17T05:41:33;3.90;;;3.57;;
6392;SDS011;3229;42.674;23.282;2023-03-17T05:44:00;3.63;;;3.30;;
6392;SDS011;3229;42.674;23.282;2023-03-17T05:46:27;5.07;;;3.60;;
6392;SDS011;3229;42.674;23.282;2023-03-17T05:48:55;3.20;;;3.00;;
6392;SDS011;3229;42.674;23.282;2023-03-17T05:51:22;3.40;;;3.10;;
6392;SDS011;3229;42.674;23.282;2023-03-17T05:53:48;4.93;;;3.40;;
6392;SDS011;3229;42.674;23.282;2023-03-17T05:56:15;3.57;;;3.27;;
6392;SDS011;3229;42.674;23.282;2023-03-17T05:58:42;3.70;;;3.30;;
6392;SDS011;3229;42.674;23.282;2023-03-17T06:01:09;4.10;;;3.47;;
6392;SDS011;3229;42.674;23.282;2023-03-17T06:03:35;4.17;;;3.37;;
6392;SDS011;3229;42.674;23.282;2023-03-17T06:06:05;3.10;;;2.80;;
6392;SDS011;3229;42.674;23.282;2023-03-17T06:08:33;2.90;;;2.50;;
6392;SDS011;3229;42.674;23.282;2023-03-17T06:11:00;2.70;;;2.50;;
6392;SDS011;3229;42.674;23.282;2023-03-17T06:13:26;3.40;;;3.10;;
6392;SDS011;3229;42.674;23.282;2023-03-17T06:15:53;3.20;;;2.90;;
6392;SDS011;3229;42.674;23.282;2023-03-17T06:18:21;3.93;;;2.93;;
6392;SDS011;3229;42.674;23.282;2023-03-17T06:20:48;3.67;;;3.00;;
6392;SDS011;3229;42.674;23.282;2023-03-17T06:23:17;5.40;;;3.77;;
6392;SDS011;3229;42.674;23.282;2023-03-17T06:25:44;3.93;;;3.13;;
6392;SDS011;3229;42.674;23.282;2023-03-17T06:28:11;3.90;;;3.07;;
6392;SDS011;3229;42.674;23.282;2023-03-17T06:30:39;7.00;;;3.70;;
6392;SDS011;3229;42.674;23.282;2023-03-17T06:33:07;3.87;;;3.30;;
6392;SDS011;3229;42.674;23.282;2023-03-17T06:35:35;3.83;;;3.53;;
6392;SDS011;3229;42.674;23.282;2023-03-17T06:38:02;4.73;;;3.73;;
6392;SDS011;3229;42.674;23.282;2023-03-17T06:40:30;3.63;;;3.23;;
6392;SDS011;3229;42.674;23.282;2023-03-17T06:42:58;5.33;;;3.67;;
6392;SDS011;3229;42.674;23.282;2023-03-17T06:45:25;4.57;;;3.70;;
6392;SDS011;3229;42.674;23.282;2023-03-17T06:47:52;3.60;;;3.30;;
6392;SDS011;3229;42.674;23.282;2023-03-17T06:50:19;3.50;;;3.20;;
6392;SDS011;3229;42.674;23.282;2023-03-17T06:52:45;3.80;;;3.50;;
6392;SDS011;3229;42.674;23.282;2023-03-17T06:55:12;4.30;;;3.80;;
6392;SDS011;3229;42.674;23.282;2023-03-17T06:57:41;4.93;;;3.93;;
6392;SDS011;3229;42.674;23.282;2023-03-17T07:00:09;4.40;;;3.30;;
6392;SDS011;3229;42.674;23.282;2023-03-17T07:02:38;5.57;;;3.73;;
6392;SDS011;3229;42.674;23.282;2023-03-17T07:05:05;3.50;;;3.20;;
6392;SDS011;3229;42.674;23.282;2023-03-17T07:07:33;4.00;;;3.23;;
6392;SDS011;3229;42.674;23.282;2023-03-17T07:10:00;3.70;;;3.30;;
6392;SDS011;3229;42.674;23.282;2023-03-17T07:12:28;3.33;;;3.13;;
6392;SDS011;3229;42.674;23.282;2023-03-17T07:14:56;3.97;;;3.43;;
6392;SDS011;3229;42.674;23.282;2023-03-17T07:17:24;4.00;;;3.60;;
6392;SDS011;3229;42.674;23.282;2023-03-17T07:19:51;4.30;;;3.50;;
6392;SDS011;3229;42.674;23.282;2023-03-17T07:22:18;4.47;;;3.63;;
6392;SDS011;3229;42.674;23.282;2023-03-17T07:24:45;4.53;;;3.20;;
6392;SDS011;3229;42.674;23.282;2023-03-17T07:27:13;3.47;;;3.17;;
6392;SDS011;3229;42.674;23.282;2023-03-17T07:29:40;4.17;;;3.20;;
6392;SDS011;3229;42.674;23.282;2023-03-17T07:32:08;5.20;;;3.33;;
6392;SDS011;3229;42.674;23.282;2023-03-17T07:34:36;5.13;;;3.30;;
6392;SDS011;3229;42.674;23.282;2023-03-17T07:37:03;4.67;;;3.13;;
6392;SDS011;3229;42.674;23.282;2023-03-17T07:39:31;3.23;;;2.93;;
6392;SDS011;3229;42.674;23.282;2023-03-17T07:41:58;4.37;;;3.33;;
6392;SDS011;3229;42.674;23.282;2023-03-17T07:44:25;4.33;;;3.23;;
6392;SDS011;3229;42.674;23.282;2023-03-17T07:46:53;3.90;;;3.60;;
6392;SDS011;3229;42.674;23.282;2023-03-17T07:49:22;4.00;;;2.80;;
6392;SDS011;3229;42.674;23.282;2023-03-17T07:51:52;4.10;;;3.50;;
6392;SDS011;3229;42.674;23.282;2023-03-17T07:54:19;3.27;;;2.97;;
6392;SDS011;3229;42.674;23.282;2023-03-17T07:56:46;3.37;;;3.07;;
6392;SDS011;3229;42.674;23.282;2023-03-17T07:59:13;2.80;;;2.60;;
6392;SDS011;3229;42.674;23.282;2023-03-17T08:01:40;2.90;;;2.70;;
6392;SDS011;3229;42.674;23.282;2023-03-17T08:04:07;3.30;;;3.00;;
6392;SDS011;3229;42.674;23.282;2023-03-17T08:06:38;4.67;;;3.57;;
6392;SDS011;3229;42.674;23.282;2023-03-17T08:09:05;4.13;;;3.10;;
6392;SDS011;3229;42.674;23.282;2023-03-17T08:11:33;3.60;;;2.90;;
6392;SDS011;3229;42.674;23.282;2023-03-17T08:14:00;3.63;;;3.30;;
6392;SDS011;3229;42.674;23.282;2023-03-17T08:16:27;2.90;;;2.60;;
6392;SDS011;3229;42.674;23.282;2023-03-17T08:18:54;3.30;;;2.60;;
6392;SDS011;3229;42.674;23.282;2023-03-17T08:21:22;3.93;;;3.40;;
6392;SDS011;3229;42.674;23.282;2023-03-17T08:23:51;3.40;;;3.10;;
6392;SDS011;3229;42.674;23.282;2023-03-17T08:26:18;3.40;;;3.10;;
6392;SDS011;3229;42.674;23.282;2023-03-17T08:28:46;3.53;;;3.10;;
6392;SDS011;3229;42.674;23.282;2023-03-17T08:31:15;3.50;;;2.83;;
6392;SDS011;3229;42.674;23.282;2023-03-17T08:33:44;4.17;;;3.20;;
6392;SDS011;3229;42.674;23.282;2023-03-17T08:36:13;2.97;;;2.77;;
6392;SDS011;3229;42.674;23.282;2023-03-17T08:38:42;3.30;;;3.00;;
6392;SDS011;3229;42.674;23.282;2023-03-17T08:41:12;3.97;;;3.10;;
6392;SDS011;3229;42.674;23.282;2023-03-17T08:43:41;3.50;;;3.20;;
6392;SDS011;3229;42.674;23.282;2023-03-17T08:46:12;2.90;;;2.70;;
6392;SDS011;3229;42.674;23.282;2023-03-17T08:48:42;3.03;;;2.70;;
6392;SDS011;3229;42.674;23.282;2023-03-17T08:51:11;3.53;;;3.00;;
6392;SDS011;3229;42.674;23.282;2023-03-17T08:53:38;3.43;;;3.13;;
6392;SDS011;3229;42.674;23.282;2023-03-17T08:56:06;3.20;;;2.90;;
6392;SDS011;3229;42.674;23.282;2023-03-17T08:58:36;3.10;;;2.80;;
6392;SDS011;3229;42.674;23.282;2023-03-17T09:01:05;5.23;;;3.00;;
6392;SDS011;3229;42.674;23.282;2023-03-17T09:03:33;4.10;;;2.90;;
6392;SDS011;3229;42.674;23.282;2023-03-17T09:06:00;3.93;;;3.50;;
6392;SDS011;3229;42.674;23.282;2023-03-17T09:08:30;3.60;;;3.30;;
6392;SDS011;3229;42.674;23.282;2023-03-17T09:10:58;5.33;;;3.40;;
6392;SDS011;3229;42.674;23.282;2023-03-17T09:13:25;5.97;;;3.43;;
6392;SDS011;3229;42.674;23.282;2023-03-17T09:15:53;4.20;;;3.10;;
6392;SDS011;3229;42.674;23.282;2023-03-17T09:18:20;3.20;;;2.90;;
6392;SDS011;3229;42.674;23.282;2023-03-17T09:20:48;3.43;;;3.07;;
6392;SDS011;3229;42.674;23.282;2023-03-17T09:23:14;4.07;;;3.40;;
6392;SDS011;3229;42.674;23.282;2023-03-17T09:25:41;4.03;;;3.47;;
6392;SDS011;3229;42.674;23.282;2023-03-17T09:28:09;3.80;;;3.50;;
6392;SDS011;3229;42.674;23.282;2023-03-17T09:30:39;3.97;;;3.47;;
6392;SDS011;3229;42.674;23.282;2023-03-17T09:33:08;5.17;;;3.13;;
6392;SDS011;3229;42.674;23.282;2023-03-17T09:35:36;3.70;;;3.40;;
6392;SDS011;3229;42.674;23.282;2023-03-17T09:38:03;3.70;;;3.40;;
6392;SDS011;3229;42.674;23.282;2023-03-17T09:40:32;3.77;;;3.17;;
6392;SDS011;3229;42.674;23.282;2023-03-17T09:43:05;3.50;;;3.20;;
6392;SDS011;3229;42.674;23.282;2023-03-17T09:45:41;5.37;;;3.33;;
6392;SDS011;3229;42.674;23.282;2023-03-17T09:48:13;4.00;;;3.40;;
6392;SDS011;3229;42.674;23.282;2023-03-17T09:50:50;3.80;;;3.37;;
6392;SDS011;3229;42.674;23.282;2023-03-17T09:53:22;4.20;;;3.80;;
6392;SDS011;3229;42.674;23.282;2023-03-17T09:55:54;3.90;;;3.53;;
6392;SDS011;3229;42.674;23.282;2023-03-17T09:58:25;3.77;;;3.47;;
6392;SDS011;3229;42.674;23.282;2023-03-17T10:00:56;5.17;;;3.70;;
6392;SDS011;3229;42.674;23.282;2023-03-17T10:03:25;4.17;;;3.77;;
6392;SDS011;3229;42.674;23.282;2023-03-17T10:05:53;4.43;;;3.77;;
6392;SDS011;3229;42.674;23.282;2023-03-17T10:08:27;5.37;;;3.20;;
6392;SDS011;3229;42.674;23.282;2023-03-17T10:10:57;4.00;;;3.67;;
6392;SDS011;3229;42.674;23.282;2023-03-17T10:13:40;5.17;;;3.60;;
6392;SDS011;3229;42.674;23.282;2023-03-17T10:16:16;5.17;;;3.67;;
6392;SDS011;3229;42.674;23.282;2023-03-17T10:18:49;7.03;;;3.80;;
6392;SDS011;3229;42.674;23.282;2023-03-17T10:21:20;6.87;;;3.90;;
6392;SDS011;3229;42.674;23.282;2023-03-17T10:23:50;3.93;;;3.53;;
6392;SDS011;3229;42.674;23.282;2023-03-17T10:26:23;4.83;;;3.63;;
6392;SDS011;3229;42.674;23.282;2023-03-17T10:28:55;4.17;;;3.37;;
6392;SDS011;3229;42.674;23.282;2023-03-17T10:31:26;4.40;;;3.40;;
6392;SDS011;3229;42.674;23.282;2023-03-17T10:34:00;4.20;;;3.80;;
6392;SDS011;3229;42.674;23.282;2023-03-17T10:36:38;4.13;;;3.60;;
6392;SDS011;3229;42.674;23.282;2023-03-17T10:39:13;4.10;;;3.70;;
6392;SDS011;3229;42.674;23.282;2023-03-17T10:41:45;5.20;;;3.57;;
6392;SDS011;3229;42.674;23.282;2023-03-17T10:44:22;5.13;;;3.50;;
6392;SDS011;3229;42.674;23.282;2023-03-17T10:47:03;4.37;;;3.10;;
6392;SDS011;3229;42.674;23.282;2023-03-17T10:49:33;4.17;;;3.53;;
6392;SDS011;3229;42.674;23.282;2023-03-17T10:52:04;6.67;;;3.60;;
6392;SDS011;3229;42.674;23.282;2023-03-17T10:54:33;6.23;;;3.77;;
6392;SDS011;3229;42.674;23.282;2023-03-17T10:57:04;4.73;;;3.73;;
6392;SDS011;3229;42.674;23.282;2023-03-17T10:59:37;3.40;;;3.10;;
6392;SDS011;3229;42.674;23.282;2023-03-17T11:02:15;4.00;;;3.60;;
6392;SDS011;3229;42.674;23.282;2023-03-17T11:04:47;3.53;;;3.23;;
6392;SDS011;3229;42.674;23.282;2023-03-17T11:07:15;3.90;;;3.50;;
6392;SDS011;3229;42.674;23.282;2023-03-17T11:09:47;5.20;;;3.70;;
6392;SDS011;3229;42.674;23.282;2023-03-17T11:12:21;5.07;;;3.90;;
6392;SDS011;3229;42.674;23.282;2023-03-17T11:14:53;5.23;;;4.03;;
6392;SDS011;3229;42.674;23.282;2023-03-17T11:17:29;3.63;;;3.33;;
6392;SDS011;3229;42.674;23.282;2023-03-17T11:20:09;4.53;;;3.73;;
6392;SDS011;3229;42.674;23.282;2023-03-17T11:22:50;4.13;;;3.33;;
6392;SDS011;3229;42.674;23.282;2023-03-17T11:25:24;5.30;;;3.70;;
6392;SDS011;3229;42.674;23.282;2023-03-17T11:27:55;5.40;;;3.70;;
6392;SDS011;3229;42.674;23.282;2023-03-17T11:30:33;4.60;;;3.40;;
6392;SDS011;3229;42.674;23.282;2023-03-17T11:33:09;6.37;;;3.90;;
6392;SDS011;3229;42.674;23.282;2023-03-17T11:35:49;3.83;;;3.43;;
6392;SDS011;3229;42.674;23.282;2023-03-17T11:38:23;3.87;;;3.47;;
6392;SDS011;3229;42.674;23.282;2023-03-17T11:40:56;4.80;;;3.70;;
6392;SDS011;3229;42.674;23.282;2023-03-17T11:43:40;5.23;;;3.80;;
6392;SDS011;3229;42.674;23.282;2023-03-17T11:46:18;4.53;;;3.50;;
6392;SDS011;3229;42.674;23.282;2023-03-17T11:48:55;4.43;;;3.60;;
6392;SDS011;3229;42.674;23.282;2023-03-17T11:51:31;3.83;;;3.13;;
6392;SDS011;3229;42.674;23.282;2023-03-17T11:54:07;5.27;;;3.40;;
6392;SDS011;3229;42.674;23.282;2023-03-17T11:56:41;3.73;;;3.43;;
6392;SDS011;3229;42.674;23.282;2023-03-17T11:59:18;4.90;;;3.10;;
6392;SDS011;3229;42.674;23.282;2023-03-17T12:01:54;3.63;;;2.80;;
6392;SDS011;3229;42.674;23.282;2023-03-17T12:04:25;4.03;;;3.37;;
6392;SDS011;3229;42.674;23.282;2023-03-17T12:07:02;3.33;;;3.00;;
6392;SDS011;3229;42.674;23.282;2023-03-17T12:09:39;3.40;;;3.10;;
6392;SDS011;3229;42.674;23.282;2023-03-17T12:12:12;5.00;;;3.17;;
6392;SDS011;3229;42.674;23.282;2023-03-17T12:14:47;4.37;;;3.40;;
6392;SDS011;3229;42.674;23.282;2023-03-17T12:17:18;4.30;;;3.37;;
6392;SDS011;3229;42.674;23.282;2023-03-17T12:19:58;4.03;;;2.60;;
6392;SDS011;3229;42.674;23.282;2023-03-17T12:22:39;3.20;;;2.90;;
6392;SDS011;3229;42.674;23.282;2023-03-17T12:25:12;2.10;;;2.00;;
6392;SDS011;3229;42.674;23.282;2023-03-17T12:27:47;6.50;;;1.83;;
6392;SDS011;3229;42.674;23.282;2023-03-17T12:30:24;1.87;;;1.77;;
6392;SDS011;3229;42.674;23.282;2023-03-17T12:32:57;2.77;;;2.17;;
6392;SDS011;3229;42.674;23.282;2023-03-17T12:35:32;2.87;;;1.80;;
6392;SDS011;3229;42.674;23.282;2023-03-17T12:38:04;4.10;;;2.23;;
6392;SDS011;3229;42.674;23.282;2023-03-17T12:40:35;2.20;;;2.00;;
6392;SDS011;3229;42.674;23.282;2023-03-17T12:43:26;1.93;;;1.80;;
6392;SDS011;3229;42.674;23.282;2023-03-17T12:46:14;2.20;;;2.10;;
6392;SDS011;3229;42.674;23.282;2023-03-17T12:52:00;2.43;;;2.20;;
6392;SDS011;3229;42.674;23.282;2023-03-17T12:54:43;2.40;;;1.83;;
6392;SDS011;3229;42.674;23.282;2023-03-17T12:57:13;2.83;;;1.83;;
6392;SDS011;3229;42.674;23.282;2023-03-17T12:59:44;1.70;;;1.60;;
6392;SDS011;3229;42.674;23.282;2023-03-17T13:02:14;1.60;;;1.50;;
6392;SDS011;3229;42.674;23.282;2023-03-17T13:04:47;1.93;;;1.77;;
6392;SDS011;3229;42.674;23.282;2023-03-17T13:07:22;1.97;;;1.87;;
6392;SDS011;3229;42.674;23.282;2023-03-17T13:18:26;1.93;;;1.80;;
6392;SDS011;3229;42.674;23.282;2023-03-17T13:21:18;2.03;;;1.83;;
6392;SDS011;3229;42.674;23.282;2023-03-17T13:23:53;1.70;;;1.60;;
6392;SDS011;3229;42.674;23.282;2023-03-17T13:29:26;1.67;;;1.57;;
6392;SDS011;3229;42.674;23.282;2023-03-17T13:38:11;2.53;;;1.67;;
6392;SDS011;3229;42.674;23.282;2023-03-17T13:41:04;3.37;;;1.60;;
6392;SDS011;3229;42.674;23.282;2023-03-17T13:43:47;1.40;;;1.33;;
6392;SDS011;3229;42.674;23.282;2023-03-17T13:46:24;1.63;;;1.53;;
6392;SDS011;3229;42.674;23.282;2023-03-17T13:48:56;1.90;;;1.70;;
6392;SDS011;3229;42.674;23.282;2023-03-17T13:51:30;1.47;;;1.30;;
6392;SDS011;3229;42.674;23.282;2023-03-17T13:54:06;1.50;;;1.50;;
6392;SDS011;3229;42.674;23.282;2023-03-17T13:56:45;1.50;;;1.40;;
6392;SDS011;3229;42.674;23.282;2023-03-17T13:59:14;1.57;;;1.47;;
6392;SDS011;3229;42.674;23.282;2023-03-17T14:01:44;1.40;;;1.40;;
6392;SDS011;3229;42.674;23.282;2023-03-17T14:04:20;1.50;;;1.40;;
6392;SDS011;3229;42.674;23.282;2023-03-17T14:06:52;2.00;;;1.90;;
6392;SDS011;3229;42.674;23.282;2023-03-17T14:09:27;1.90;;;1.80;;
6392;SDS011;3229;42.674;23.282;2023-03-17T14:12:01;1.70;;;1.60;;
6392;SDS011;3229;42.674;23.282;2023-03-17T14:14:39;1.50;;;1.40;;
6392;SDS011;3229;42.674;23.282;2023-03-17T14:17:12;1.60;;;1.50;;
6392;SDS011;3229;42.674;23.282;2023-03-17T14:22:30;1.60;;;1.50;;
6392;SDS011;3229;42.674;23.282;2023-03-17T14:24:58;2.20;;;2.00;;
6392;SDS011;3229;42.674;23.282;2023-03-17T14:27:28;1.60;;;1.50;;
6392;SDS011;3229;42.674;23.282;2023-03-17T14:30:05;1.70;;;1.60;;
6392;SDS011;3229;42.674;23.282;2023-03-17T14:32:34;1.70;;;1.60;;
6392;SDS011;3229;42.674;23.282;2023-03-17T14:35:00;1.80;;;1.70;;
6392;SDS011;3229;42.674;23.282;2023-03-17T14:37:28;1.60;;;1.50;;
6392;SDS011;3229;42.674;23.282;2023-03-17T14:39:55;1.73;;;1.60;;
6392;SDS011;3229;42.674;23.282;2023-03-17T14:42:24;1.80;;;1.70;;
6392;SDS011;3229;42.674;23.282;2023-03-17T14:44:58;3.20;;;2.20;;
6392;SDS011;3229;42.674;23.282;2023-03-17T14:47:28;1.80;;;1.70;;
6392;SDS011;3229;42.674;23.282;2023-03-17T14:50:14;1.70;;;1.60;;
6392;SDS011;3229;42.674;23.282;2023-03-17T14:52:43;3.13;;;1.60;;
6392;SDS011;3229;42.674;23.282;2023-03-17T14:55:11;2.30;;;1.60;;
6392;SDS011;3229;42.674;23.282;2023-03-17T14:57:39;1.60;;;1.50;;
6392;SDS011;3229;42.674;23.282;2023-03-17T15:00:14;1.73;;;1.57;;
6392;SDS011;3229;42.674;23.282;2023-03-17T15:02:54;2.40;;;1.67;;
6392;SDS011;3229;42.674;23.282;2023-03-17T15:05:24;1.70;;;1.60;;
6392;SDS011;3229;42.674;23.282;2023-03-17T15:07:53;1.97;;;1.70;;
6392;SDS011;3229;42.674;23.282;2023-03-17T15:10:20;3.10;;;1.70;;
6392;SDS011;3229;42.674;23.282;2023-03-17T15:12:50;1.73;;;1.60;;
6392;SDS011;3229;42.674;23.282;2023-03-17T15:15:27;2.73;;;2.07;;
6392;SDS011;3229;42.674;23.282;2023-03-17T15:17:59;1.93;;;1.83;;
6392;SDS011;3229;42.674;23.282;2023-03-17T15:20:30;2.30;;;2.10;;
6392;SDS011;3229;42.674;23.282;2023-03-17T15:23:02;2.00;;;1.73;;
6392;SDS011;3229;42.674;23.282;2023-03-17T15:25:32;2.00;;;1.80;;
6392;SDS011;3229;42.674;23.282;2023-03-17T15:28:00;1.90;;;1.67;;
6392;SDS011;3229;42.674;23.282;2023-03-17T15:30:27;2.10;;;1.90;;
6392;SDS011;3229;42.674;23.282;2023-03-17T15:32:57;1.93;;;1.83;;
6392;SDS011;3229;42.674;23.282;2023-03-17T15:35:26;4.57;;;2.00;;
6392;SDS011;3229;42.674;23.282;2023-03-17T15:37:53;2.20;;;2.00;;
6392;SDS011;3229;42.674;23.282;2023-03-17T15:40:20;1.77;;;1.67;;
6392;SDS011;3229;42.674;23.282;2023-03-17T15:42:48;3.70;;;2.00;;